Latest Coastal Weather Observations for Truscott

IDD60701

Issued at 2:31 am CST Friday 30 September 2016 (issued every 10 minutes, with the page automatically refreshed every 10 minutes)

About coastal observations | Map of coastal stations | Coastal observations for NT | Marine services | Other Formats
Station Details ID: 001020 Name: TRUSCOTT Lat: -14.09 Lon: 126.39 Height: 51.0 m
Data from the previous 72 hours. | See also: Recent months at Truscott
Date/Time
CST
Temp
°C
Wind Pressure Rain since
9am
mm
Weather Cloud Vis
km
Sea
Height
m
Swell
Dir  Spd
kts
Gust
kts
hPa Trend Height
m
Period
s
Dir
30/02:30am 28.0 WNW 7 9 1008.1 - 0.0 - - 10 - - - -
30/02:00am 27.9 WNW 5 7 1008.1 - 0.0 - - 10 - - - -
30/01:30am 28.1 WNW 5 7 1008.3 - 0.0 - Mostly clear 10 - - - -
30/01:00am 28.1 NW 4 6 1008.6 - 0.0 - Partly cloudy 10 - - - -
30/12:30am 28.4 WNW 5 6 1009.1 - 0.0 - Partly cloudy 10 - - - -
30/12:00am 28.3 NW 4 7 1009.3 - 0.0 - - 10 - - - -
 
Date/Time
CST
Temp
°C
Wind Pressure Rain since
9am
mm
Weather Cloud Vis
km
Sea
Height
m
Swell
Dir  Spd
kts
Gust
kts
hPa Trend Height
m
Period
s
Dir
29/11:30pm 28.3 WNW 5 8 1009.3 - 0.0 - - 10 - - - -
29/11:00pm 28.3 NNW 5 7 1009.4 - 0.0 - - 10 - - - -
29/10:30pm 28.2 NW 4 7 1009.2 - 0.0 - Mostly cloudy 10 - - - -
29/10:00pm 28.3 NNW 4 6 1009.1 - 0.0 - - 10 - - - -
29/09:30pm 28.3 NNW 4 5 1008.6 - 0.0 - - 10 - - - -
29/09:00pm 28.5 NW 5 7 1008.4 - 0.0 - - 10 - - - -
29/08:30pm 28.6 NNW 5 7 1007.9 - 0.0 - - 10 - - - -
29/08:00pm 28.7 NNW 5 7 1007.4 - 0.0 - - 10 - - - -
29/07:30pm 28.8 NW 6 9 1006.8 - 0.0 - - 10 - - - -
29/07:00pm 29.0 NNW 9 14 1006.1 - 0.0 - - 10 - - - -
29/06:30pm 29.3 NW 9 13 1005.6 - 0.0 - - 10 - - - -
29/06:00pm 30.2 NW 8 11 1005.2 - 0.0 - - 10 - - - -
29/05:30pm 30.6 NW 10 15 1005.1 - 0.0 - - 10 - - - -
29/05:00pm 30.6 NNW 10 15 1005.1 - 0.0 - - 10 - - - -
29/04:30pm 31.4 NNW 10 15 1005.1 - 0.0 - Partly cloudy 10 - - - -
29/04:00pm 31.6 NNW 11 17 1005.3 - 0.0 - - 10 - - - -
29/03:30pm 32.5 NNW 11 16 1005.3 - 0.0 - - 10 - - - -
29/03:00pm 32.4 NNW 11 15 1005.7 - 0.0 - - 10 - - - -
29/02:30pm 33.0 NNW 11 14 1006.0 - 0.0 - - 10 - - - -
29/02:00pm 33.4 N 11 15 1006.4 - 0.0 - - 10 - - - -
29/01:30pm 34.6 NNW 10 15 1006.7 - 0.0 - - 10 - - - -
29/01:00pm 34.7 N 10 15 1007.3 - 0.0 - - 10 - - - -
29/12:30pm 34.7 N 10 15 1007.9 - 0.0 - - 10 - - - -
29/12:00pm 36.6 S 6 9 1008.5 - 0.0 - - 10 - - - -
29/11:30am 35.9 N 3 7 1008.9 - 0.0 - - 10 - - - -
29/11:00am 35.8 SSW 5 9 1009.4 - 0.0 - - 10 - - - -
29/10:30am 34.1 S 6 9 1009.8 - - - - 10 - - - -
29/10:00am 32.5 S 7 11 1010.0 - - - - 10 - - - -
29/09:30am 32.0 S 7 11 1010.1 - - - - 10 - - - -
29/09:00am 30.3 WSW 6 8 1010.1 - - - - 10 - - - -
29/08:30am 29.4 WSW 5 8 1010.0 - - - - 10 - - - -
29/08:00am 27.9 W 3 5 1009.7 - - - Partly cloudy 10 - - - -
29/07:30am 27.2 W 4 6 1009.3 - - - Partly cloudy 10 - - - -
29/07:00am 26.5 WSW 3 5 1008.9 - - - - 10 - - - -
29/06:30am 25.7 WNW 3 4 1008.3 - - - - 10 - - - -
29/06:00am 26.1 WNW 1 4 1008.1 - - - - 10 - - - -
29/05:30am 25.8 CALM 0 0 1007.9 - - - Partly cloudy 10 - - - -
29/05:00am 25.9 CALM 0 0 1007.8 - - - Partly cloudy 10 - - - -
29/04:30am 26.5 CALM 0 0 1007.6 - 0.0 - Partly cloudy 10 - - - -
29/04:00am 26.6 CALM 0 0 1007.7 - - - Cloudy 10 - - - -
29/03:30am 25.5 N 3 4 1007.7 - - - Partly cloudy 10 - - - -
29/03:00am 25.4 CALM 0 0 1007.7 - - - - 10 - - - -
29/02:30am 25.9 CALM 0 0 1008.0 - - - - 10 - - - -
29/02:00am 25.9 CALM 0 0 1008.3 - - - - 10 - - - -
29/01:30am 26.0 CALM 0 0 1008.8 - - - - 10 - - - -
29/01:00am 26.5 CALM 0 2 1009.2 - - - - 10 - - - -
29/12:30am 26.5 W 1 3 1009.5 - - - - 10 - - - -
29/12:00am 26.4 CALM 0 0 1009.7 - - - - 10 - - - -
 
Date/Time
CST
Temp
°C
Wind Pressure Rain since
9am
mm
Weather Cloud Vis
km
Sea
Height
m
Swell
Dir  Spd
kts
Gust
kts
hPa Trend Height
m
Period
s
Dir
28/11:30pm 27.5 W 2 4 1009.9 - - - - 10 - - - -
28/11:00pm 27.8 WSW 3 4 1009.8 - - - - 10 - - - -
28/10:30pm 28.2 W 3 4 1009.6 - 0.0 - - 10 - - - -
28/10:00pm 28.7 SW 5 6 1009.5 - - - - 10 - - - -
28/09:30pm 28.9 SW 4 5 1009.2 - - - - 10 - - - -
28/09:00pm 29.2 WSW 4 6 1008.9 - - - - 10 - - - -
28/08:30pm 30.0 W 5 8 1008.7 - - - - 10 - - - -
28/08:00pm 30.5 W 6 9 1008.4 - - - - 10 - - - -
28/07:30pm 30.6 NW 5 8 1008.1 - - - - 10 - - - -
28/07:00pm 31.3 NW 7 11 1007.6 - - - - 10 - - - -
28/06:30pm 32.4 NW 8 11 1007.3 - - - - 10 - - - -
28/06:00pm 33.1 NNW 9 13 1007.1 - - - - 10 - - - -
28/05:30pm 33.5 NW 9 16 1006.9 - - - - 10 - - - -
28/05:00pm 33.8 NNW 10 16 1006.8 - - - - 10 - - - -
28/04:30pm 33.9 NNW 11 16 1007.0 - - - - 10 - - - -
28/04:00pm 34.1 NNW 11 16 1007.2 - - - - 10 - - - -
28/03:30pm 34.6 NNW 10 14 1007.3 - - - - 10 - - - -
28/03:00pm 34.7 NNW 10 15 1007.7 - - - - 10 - - - -
28/02:30pm 35.6 NNW 9 13 1007.8 - - - - 10 - - - -
28/02:00pm 36.4 WNW 10 15 1008.0 - - - - 10 - - - -
28/01:30pm 35.7 WNW 10 15 1008.6 - - - Mostly clear 10 - - - -
28/01:00pm 35.7 WNW 10 15 1009.2 - - - - 10 - - - -
28/12:30pm 35.5 WNW 8 11 1009.6 - - - - 10 - - - -
28/12:00pm 35.7 WNW 8 12 1010.0 - - - - 10 - - - -
28/01:30am 27.5 WSW 5 6 1009.8 - 0.0 - - 10 - - - -
28/01:00am 27.8 WSW 5 6 1010.0 - 0.0 - - 10 - - - -
28/12:30am 27.8 WSW 5 6 1010.2 - 0.0 - - 10 - - - -
28/12:00am 27.9 WSW 5 7 1010.5 - 0.0 - - 10 - - - -
 
Date/Time
CST
Temp
°C
Wind Pressure Rain since
9am
mm
Weather Cloud Vis
km
Sea
Height
m
Swell
Dir  Spd
kts
Gust
kts
hPa Trend Height
m
Period
s
Dir
27/11:30pm 28.0 WSW 6 8 1010.6 - 0.0 - - 10 - - - -
27/11:00pm 28.2 WSW 5 7 1010.7 - 0.0 - - 10 - - - -
27/10:30pm 28.3 W 5 6 1010.6 - 0.0 - - 10 - - - -
27/10:00pm 28.4 W 6 9 1010.3 - 0.0 - - 10 - - - -
27/09:30pm 28.6 W 6 8 1010.2 - 0.0 - - 10 - - - -
27/09:00pm 29.0 W 7 11 1009.9 - 0.0 - - 10 - - - -
27/08:30pm 29.3 W 6 9 1009.6 - 0.0 - - 10 - - - -
27/08:00pm 29.7 WNW 6 8 1009.2 - 0.0 - - 10 - - - -
27/07:30pm 30.0 WNW 6 10 1008.7 - 0.0 - - 10 - - - -
27/07:00pm 30.8 WNW 7 11 1008.4 - 0.0 - - 10 - - - -
27/06:30pm 30.6 NW 7 10 1008.0 - 0.0 - - 10 - - - -
27/06:00pm 30.8 NW 8 11 1007.6 - 0.0 - - 10 - - - -
27/05:30pm 30.8 NW 9 13 1007.5 - 0.0 - - 10 - - - -
27/05:00pm 31.7 NW 11 16 1007.4 - 0.0 - - 10 - - - -
27/04:30pm 33.2 NNW 9 14 1007.4 - 0.0 - Mostly clear 10 - - - -
27/04:00pm 33.6 NNW 9 13 1007.3 - 0.0 - Partly cloudy 10 - - - -
27/03:30pm 32.9 N 10 15 1007.3 - 0.0 - - 10 - - - -
27/03:00pm 31.9 N 10 13 1007.7 - 0.0 - Partly cloudy 10 - - - -
27/02:30pm 33.2 NW 10 15 1007.9 - 0.0 - Partly cloudy 10 - - - -
27/02:00pm 32.4 N 10 15 1008.2 - 0.0 - Partly cloudy 10 - - - -
27/01:30pm 32.3 NNW 10 14 1008.6 - 0.0 - Mostly clear 10 - - - -
27/01:00pm 32.5 NNW 9 13 1009.2 - 0.0 - - 10 - - - -
27/12:30pm 33.1 NNW 9 12 1009.6 - 0.0 - - 10 - - - -
27/12:00pm 34.2 N 9 13 1010.2 - 0.0 - - 10 - - - -
27/11:30am 34.2 NNW 6 11 1010.5 - 0.0 - - 10 - - - -
27/11:00am 32.5 N 8 11 1010.8 - 0.0 - - 10 - - - -
27/10:30am 33.4 N 3 7 1011.1 - 0.0 - - 10 - - - -
27/10:00am 32.2 NW 5 6 1011.2 - 0.0 - - 10 - - - -
27/09:30am 31.4 WSW 2 5 1011.2 - 0.0 - - 10 - - - -
27/09:00am 30.1 W 4 7 1011.1 - 0.0 - - 10 - - - -
27/08:30am 29.4 WSW 4 6 1010.9 - 0.0 - - 10 - - - -
27/08:00am 27.6 S 1 4 1010.5 - 0.0 - - 10 - - - -
27/07:30am 25.0 CALM 0 0 1010.5 - 0.0 - - 10 - - - -
27/07:00am 23.8 CALM 0 0 1010.2 - 0.0 - - 10 - - - -
27/06:30am 24.1 CALM 0 0 1010.0 - 0.0 - - 10 - - - -
27/06:00am 24.1 CALM 0 0 1009.9 - 0.0 - - 10 - - - -
27/05:30am 24.6 CALM 0 0 1009.5 - 0.0 - - 10 - - - -
27/05:00am 25.2 SSW 3 4 1009.1 - 0.0 - - 10 - - - -
27/04:30am 27.0 SSW 4 5 1008.9 - 0.0 - - 10 - - - -

Other Formats:

Comma delimited format used in spreadsheet applications
http://www.bom.gov.au/fwo/IDD60701/IDD60701.95101.axf

JavaScript Object Notation format (JSON) in row-major order
http://www.bom.gov.au/fwo/IDD60701/IDD60701.95101.json